sensor_id;sensor_type;location;lat;lon;timestamp;pressure;altitude;pressure_sealevel;temperature;humidity
48027;BME280;50714;49.208;5.364;2023-04-21T00:05:22;98960.25;;;6.90;85.38
48027;BME280;50714;49.208;5.364;2023-04-21T00:15:22;98951.66;;;6.73;83.86
48027;BME280;50714;49.208;5.364;2023-04-21T00:25:23;98938.53;;;6.63;84.75
48027;BME280;50714;49.208;5.364;2023-04-21T00:35:23;98934.00;;;6.42;85.13
48027;BME280;50714;49.208;5.364;2023-04-21T00:45:24;98924.47;;;6.19;84.68
48027;BME280;50714;49.208;5.364;2023-04-21T00:55:24;98921.47;;;6.07;84.92
48027;BME280;50714;49.208;5.364;2023-04-21T01:05:24;98925.69;;;6.16;85.69
48027;BME280;50714;49.208;5.364;2023-04-21T01:15:25;98917.63;;;6.31;86.20
48027;BME280;50714;49.208;5.364;2023-04-21T01:25:26;98913.34;;;6.36;86.39
48027;BME280;50714;49.208;5.364;2023-04-21T01:35:27;98903.31;;;6.45;87.24
48027;BME280;50714;49.208;5.364;2023-04-21T01:45:29;98893.81;;;6.42;86.52
48027;BME280;50714;49.208;5.364;2023-04-21T01:55:29;98897.00;;;6.53;86.40
48027;BME280;50714;49.208;5.364;2023-04-21T02:05:29;98902.00;;;6.56;86.90
48027;BME280;50714;49.208;5.364;2023-04-21T02:15:30;98895.09;;;6.46;86.14
48027;BME280;50714;49.208;5.364;2023-04-21T02:25:30;98883.09;;;6.42;85.77
48027;BME280;50714;49.208;5.364;2023-04-21T02:35:31;98876.44;;;6.38;84.88
48027;BME280;50714;49.208;5.364;2023-04-21T02:45:35;98882.06;;;6.43;85.28
48027;BME280;50714;49.208;5.364;2023-04-21T02:55:36;98875.31;;;6.47;85.98
48027;BME280;50714;49.208;5.364;2023-04-21T03:05:36;98880.28;;;6.50;85.24
48027;BME280;50714;49.208;5.364;2023-04-21T03:15:37;98871.47;;;6.57;85.94
48027;BME280;50714;49.208;5.364;2023-04-21T03:25:37;98866.25;;;6.48;85.47
48027;BME280;50714;49.208;5.364;2023-04-21T03:35:38;98841.38;;;6.12;86.89
48027;BME280;50714;49.208;5.364;2023-04-21T03:45:38;98853.25;;;5.88;89.23
48027;BME280;50714;49.208;5.364;2023-04-21T03:55:39;98837.41;;;6.08;87.69
48027;BME280;50714;49.208;5.364;2023-04-21T04:05:39;98846.03;;;6.25;87.93
48027;BME280;50714;49.208;5.364;2023-04-21T04:15:39;98854.31;;;6.30;87.50
48027;BME280;50714;49.208;5.364;2023-04-21T04:25:40;98858.47;;;6.32;87.74
48027;BME280;50714;49.208;5.364;2023-04-21T04:35:41;98859.50;;;6.31;86.41
48027;BME280;50714;49.208;5.364;2023-04-21T04:45:42;98870.59;;;6.28;85.46
48027;BME280;50714;49.208;5.364;2023-04-21T04:55:42;98868.59;;;6.15;86.30
48027;BME280;50714;49.208;5.364;2023-04-21T05:05:43;98868.94;;;6.06;86.24
48027;BME280;50714;49.208;5.364;2023-04-21T05:15:45;98870.84;;;6.12;86.41
48027;BME280;50714;49.208;5.364;2023-04-21T05:25:45;98873.69;;;5.89;87.03
48027;BME280;50714;49.208;5.364;2023-04-21T05:35:45;98871.63;;;5.76;88.12
48027;BME280;50714;49.208;5.364;2023-04-21T05:45:46;98875.06;;;5.70;88.18
48027;BME280;50714;49.208;5.364;2023-04-21T05:55:46;98888.94;;;5.89;88.13
48027;BME280;50714;49.208;5.364;2023-04-21T06:05:52;98898.34;;;6.21;88.27
48027;BME280;50714;49.208;5.364;2023-04-21T06:15:55;98886.97;;;6.82;86.35
48027;BME280;50714;49.208;5.364;2023-04-21T06:36:00;98889.28;;;7.96;81.83
48027;BME280;50714;49.208;5.364;2023-04-21T06:46:00;98887.47;;;8.29;78.90
48027;BME280;50714;49.208;5.364;2023-04-21T06:56:01;98887.16;;;8.78;77.96
48027;BME280;50714;49.208;5.364;2023-04-21T07:06:02;98879.47;;;9.35;77.43
48027;BME280;50714;49.208;5.364;2023-04-21T07:16:02;98869.66;;;10.11;74.97
48027;BME280;50714;49.208;5.364;2023-04-21T07:26:03;98866.31;;;10.54;73.54
48027;BME280;50714;49.208;5.364;2023-04-21T07:36:03;98870.78;;;10.91;69.46
48027;BME280;50714;49.208;5.364;2023-04-21T07:46:05;98861.44;;;11.55;70.13
48027;BME280;50714;49.208;5.364;2023-04-21T07:56:05;98864.56;;;12.37;68.76
48027;BME280;50714;49.208;5.364;2023-04-21T08:06:06;98854.91;;;13.64;66.05
48027;BME280;50714;49.208;5.364;2023-04-21T08:16:07;98847.09;;;14.65;62.84
48027;BME280;50714;49.208;5.364;2023-04-21T08:26:08;98833.09;;;16.59;63.64
48027;BME280;50714;49.208;5.364;2023-04-21T08:36:08;98830.97;;;19.01;56.36
48027;BME280;50714;49.208;5.364;2023-04-21T08:46:11;98832.53;;;21.39;49.87
48027;BME280;50714;49.208;5.364;2023-04-21T08:56:11;98825.91;;;22.55;48.49
48027;BME280;50714;49.208;5.364;2023-04-21T09:06:11;98840.53;;;23.66;40.42
48027;BME280;50714;49.208;5.364;2023-04-21T09:16:17;98849.59;;;24.49;35.31
48027;BME280;50714;49.208;5.364;2023-04-21T09:26:21;98836.53;;;24.55;34.36
48027;BME280;50714;49.208;5.364;2023-04-21T09:36:26;98832.78;;;24.23;39.24
48027;BME280;50714;49.208;5.364;2023-04-21T09:46:28;98839.66;;;24.84;38.91
48027;BME280;50714;49.208;5.364;2023-04-21T09:56:32;98821.88;;;24.04;39.36
48027;BME280;50714;49.208;5.364;2023-04-21T10:06:34;98804.22;;;25.53;38.31
48027;BME280;50714;49.208;5.364;2023-04-21T10:16:35;98807.56;;;26.21;36.01
48027;BME280;50714;49.208;5.364;2023-04-21T10:26:37;98798.47;;;23.47;35.19
48027;BME280;50714;49.208;5.364;2023-04-21T10:46:53;98767.09;;;22.51;35.94
48027;BME280;50714;49.208;5.364;2023-04-21T10:56:55;98756.94;;;20.65;37.72
48027;BME280;50714;49.208;5.364;2023-04-21T11:07:06;98762.38;;;18.77;40.40
48027;BME280;50714;49.208;5.364;2023-04-21T11:17:13;98757.59;;;17.86;43.20
48027;BME280;50714;49.208;5.364;2023-04-21T11:27:14;98746.81;;;20.61;39.52
48027;BME280;50714;49.208;5.364;2023-04-21T11:37:23;98739.25;;;21.05;36.26
48027;BME280;50714;49.208;5.364;2023-04-21T11:47:25;98735.28;;;20.93;35.62
48027;BME280;50714;49.208;5.364;2023-04-21T11:57:27;98718.50;;;20.70;38.90
48027;BME280;50714;49.208;5.364;2023-04-21T12:07:30;98718.31;;;22.24;36.97
48027;BME280;50714;49.208;5.364;2023-04-21T12:17:38;98712.09;;;22.18;35.94
48027;BME280;50714;49.208;5.364;2023-04-21T12:27:51;98704.22;;;20.73;38.83
48027;BME280;50714;49.208;5.364;2023-04-21T12:37:52;98711.63;;;19.40;40.65
48027;BME280;50714;49.208;5.364;2023-04-21T12:47:52;98700.53;;;18.96;41.64
48027;BME280;50714;49.208;5.364;2023-04-21T12:57:54;98696.16;;;18.95;41.00
48027;BME280;50714;49.208;5.364;2023-04-21T13:07:54;98694.31;;;18.15;42.22
48027;BME280;50714;49.208;5.364;2023-04-21T13:17:54;98696.03;;;17.43;43.25
48027;BME280;50714;49.208;5.364;2023-04-21T13:27:55;98692.53;;;16.95;44.08
48027;BME280;50714;49.208;5.364;2023-04-21T13:37:55;98688.28;;;16.67;45.99
48027;BME280;50714;49.208;5.364;2023-04-21T13:47:56;98662.31;;;17.07;45.96
48027;BME280;50714;49.208;5.364;2023-04-21T13:57:58;98666.13;;;16.59;46.42
48027;BME280;50714;49.208;5.364;2023-04-21T14:07:59;98653.56;;;16.16;47.33
48027;BME280;50714;49.208;5.364;2023-04-21T14:18:00;98636.03;;;16.38;47.04
48027;BME280;50714;49.208;5.364;2023-04-21T14:28:00;98633.56;;;16.37;47.79
48027;BME280;50714;49.208;5.364;2023-04-21T14:38:04;98625.69;;;16.41;48.84
48027;BME280;50714;49.208;5.364;2023-04-21T14:48:04;98597.56;;;16.25;49.25
48027;BME280;50714;49.208;5.364;2023-04-21T14:58:04;98581.91;;;16.10;49.72
48027;BME280;50714;49.208;5.364;2023-04-21T15:08:05;98554.22;;;16.18;49.70
48027;BME280;50714;49.208;5.364;2023-04-21T15:18:05;98543.06;;;16.20;50.22
48027;BME280;50714;49.208;5.364;2023-04-21T15:28:07;98530.59;;;16.34;50.47
48027;BME280;50714;49.208;5.364;2023-04-21T15:38:07;98531.28;;;16.09;50.70
48027;BME280;50714;49.208;5.364;2023-04-21T15:48:08;98517.63;;;15.99;51.05
48027;BME280;50714;49.208;5.364;2023-04-21T15:58:08;98507.56;;;15.99;51.61
48027;BME280;50714;49.208;5.364;2023-04-21T16:08:12;98507.59;;;16.05;51.01
48027;BME280;50714;49.208;5.364;2023-04-21T16:18:12;98505.09;;;15.98;50.72
48027;BME280;50714;49.208;5.364;2023-04-21T16:28:13;98513.56;;;16.01;50.95
48027;BME280;50714;49.208;5.364;2023-04-21T16:38:13;98505.13;;;16.03;51.56
48027;BME280;50714;49.208;5.364;2023-04-21T16:48:13;98512.03;;;15.79;52.73
48027;BME280;50714;49.208;5.364;2023-04-21T16:58:14;98511.66;;;15.65;53.60
48027;BME280;50714;49.208;5.364;2023-04-21T17:08:14;98521.44;;;15.66;54.31
48027;BME280;50714;49.208;5.364;2023-04-21T17:18:14;98523.28;;;15.60;53.90
48027;BME280;50714;49.208;5.364;2023-04-21T17:28:15;98537.69;;;15.56;54.04
48027;BME280;50714;49.208;5.364;2023-04-21T17:38:15;98535.63;;;15.41;54.32
48027;BME280;50714;49.208;5.364;2023-04-21T17:48:16;98528.09;;;15.21;54.04
48027;BME280;50714;49.208;5.364;2023-04-21T17:58:16;98543.75;;;15.09;54.34
48027;BME280;50714;49.208;5.364;2023-04-21T18:08:18;98555.56;;;14.98;54.92
48027;BME280;50714;49.208;5.364;2023-04-21T18:18:19;98554.56;;;14.82;55.92
48027;BME280;50714;49.208;5.364;2023-04-21T18:28:19;98555.09;;;14.57;56.47
48027;BME280;50714;49.208;5.364;2023-04-21T18:38:19;98559.25;;;14.26;57.17
48027;BME280;50714;49.208;5.364;2023-04-21T18:48:20;98562.88;;;13.98;58.48
48027;BME280;50714;49.208;5.364;2023-04-21T18:58:20;98575.56;;;13.76;59.23
48027;BME280;50714;49.208;5.364;2023-04-21T19:08:20;98585.63;;;13.47;60.23
48027;BME280;50714;49.208;5.364;2023-04-21T19:18:21;98597.66;;;13.23;61.74
48027;BME280;50714;49.208;5.364;2023-04-21T19:28:21;98603.81;;;13.07;62.91
48027;BME280;50714;49.208;5.364;2023-04-21T19:38:21;98602.56;;;12.97;63.38
48027;BME280;50714;49.208;5.364;2023-04-21T19:48:22;98617.53;;;12.88;64.36
48027;BME280;50714;49.208;5.364;2023-04-21T19:58:22;98615.34;;;12.74;65.18
48027;BME280;50714;49.208;5.364;2023-04-21T20:08:22;98623.25;;;12.52;66.28
48027;BME280;50714;49.208;5.364;2023-04-21T20:18:23;98619.28;;;12.43;66.66
48027;BME280;50714;49.208;5.364;2023-04-21T20:28:23;98608.19;;;12.33;67.11
48027;BME280;50714;49.208;5.364;2023-04-21T20:38:24;98615.03;;;12.23;67.51
48027;BME280;50714;49.208;5.364;2023-04-21T20:48:25;98600.22;;;12.14;67.74
48027;BME280;50714;49.208;5.364;2023-04-21T20:58:25;98599.03;;;11.99;68.51
48027;BME280;50714;49.208;5.364;2023-04-21T21:08:26;98592.22;;;11.96;68.56
48027;BME280;50714;49.208;5.364;2023-04-21T21:18:27;98598.56;;;11.90;68.74
48027;BME280;50714;49.208;5.364;2023-04-21T21:28:28;98600.66;;;11.76;69.10
48027;BME280;50714;49.208;5.364;2023-04-21T21:38:29;98583.19;;;11.60;70.14
48027;BME280;50714;49.208;5.364;2023-04-21T21:48:29;98594.81;;;11.49;70.62
48027;BME280;50714;49.208;5.364;2023-04-21T21:58:30;98587.88;;;11.42;70.94
48027;BME280;50714;49.208;5.364;2023-04-21T22:08:30;98587.63;;;11.32;71.26
48027;BME280;50714;49.208;5.364;2023-04-21T22:18:30;98575.94;;;11.19;71.59
48027;BME280;50714;49.208;5.364;2023-04-21T22:28:31;98592.56;;;11.05;72.34
48027;BME280;50714;49.208;5.364;2023-04-21T22:38:31;98590.47;;;10.88;72.77
48027;BME280;50714;49.208;5.364;2023-04-21T22:48:32;98588.63;;;10.71;73.48
48027;BME280;50714;49.208;5.364;2023-04-21T22:58:35;98590.44;;;10.58;73.48
48027;BME280;50714;49.208;5.364;2023-04-21T23:08:35;98584.47;;;10.38;73.31
48027;BME280;50714;49.208;5.364;2023-04-21T23:18:36;98567.00;;;10.16;73.93
48027;BME280;50714;49.208;5.364;2023-04-21T23:28:36;98551.56;;;10.05;73.65
48027;BME280;50714;49.208;5.364;2023-04-21T23:38:36;98555.59;;;9.96;74.42
48027;BME280;50714;49.208;5.364;2023-04-21T23:48:36;98559.34;;;9.95;75.10
48027;BME280;50714;49.208;5.364;2023-04-21T23:58:37;98539.59;;;10.01;76.18
